createdAt,value
2019-05-11T00:01:24.403Z,16.12
2019-05-11T00:03:52.880Z,14.27
2019-05-11T00:06:21.318Z,13.45
2019-05-11T00:08:49.820Z,12.82
2019-05-11T00:11:18.499Z,15.28
2019-05-11T00:13:46.937Z,15.35
2019-05-11T00:16:18.935Z,16.25
2019-05-11T00:18:45.515Z,15.67
2019-05-11T00:21:13.954Z,17.80
2019-05-11T00:23:42.632Z,16.42
2019-05-11T00:26:11.049Z,16.52
2019-05-11T00:28:39.473Z,14.35
2019-05-11T00:31:07.905Z,13.90
2019-05-11T00:33:36.329Z,15.35
2019-05-11T00:36:04.759Z,13.33
2019-05-11T00:38:33.191Z,16.30
2019-05-11T00:41:01.867Z,16.85
2019-05-11T00:43:30.300Z,16.00
2019-05-11T00:45:58.732Z,12.00
2019-05-11T00:48:27.169Z,14.23
2019-05-11T00:50:55.608Z,13.72
2019-05-11T00:53:24.035Z,16.70
2019-05-11T00:55:52.529Z,15.40
2019-05-11T00:58:20.970Z,15.48
2019-05-11T01:00:49.380Z,15.23
2019-05-11T01:03:17.833Z,14.75
2019-05-11T01:05:46.258Z,14.43
2019-05-11T01:08:14.693Z,15.15
2019-05-11T01:10:43.128Z,14.50
2019-05-11T01:13:11.661Z,13.50
2019-05-11T01:15:40.204Z,14.30
2019-05-11T01:18:08.633Z,13.25
2019-05-11T01:20:37.052Z,13.18
2019-05-11T01:23:05.511Z,14.80
2019-05-11T01:25:33.940Z,17.45
2019-05-11T01:28:02.369Z,13.68
2019-05-11T01:30:30.789Z,20.20
2019-05-11T01:32:59.215Z,13.98
2019-05-11T01:35:27.637Z,15.00
2019-05-11T01:37:56.141Z,13.93
2019-05-11T01:40:24.573Z,13.80
2019-05-11T01:42:53.008Z,14.90
2019-05-11T01:45:21.437Z,16.60
2019-05-11T01:47:49.865Z,16.93
2019-05-11T01:50:18.309Z,14.05
2019-05-11T01:52:46.722Z,12.47
2019-05-11T01:55:15.163Z,16.27
2019-05-11T01:57:43.588Z,14.78
2019-05-11T02:00:12.353Z,13.53
2019-05-11T02:02:40.849Z,13.48
2019-05-11T02:05:27.161Z,14.07
2019-05-11T02:07:55.934Z,14.78
2019-05-11T02:10:24.435Z,15.30
2019-05-11T02:12:53.225Z,15.45
2019-05-11T02:15:21.661Z,12.53
2019-05-11T02:17:50.091Z,16.25
2019-05-11T02:20:18.860Z,14.98
2019-05-11T02:22:47.277Z,13.95
2019-05-11T02:25:15.855Z,13.85
2019-05-11T02:27:44.318Z,15.95
2019-05-11T02:30:13.051Z,18.25
2019-05-11T02:32:41.490Z,16.77
2019-05-11T02:35:10.381Z,18.60
2019-05-11T02:37:39.725Z,17.77
2019-05-11T02:40:08.694Z,14.23
2019-05-11T02:42:37.119Z,12.68
2019-05-11T02:45:08.846Z,15.63
2019-05-11T02:47:37.280Z,14.20
2019-05-11T02:50:06.039Z,14.03
2019-05-11T02:52:35.230Z,14.65
2019-05-11T02:55:03.934Z,14.23
2019-05-11T02:57:32.438Z,12.40
2019-05-11T03:00:00.875Z,10.88
2019-05-11T03:02:29.373Z,15.50
2019-05-11T03:04:57.797Z,12.30
2019-05-11T03:07:26.214Z,11.40
2019-05-11T03:09:54.639Z,11.50
2019-05-11T03:12:23.084Z,13.15
2019-05-11T03:14:51.570Z,12.10
2019-05-11T03:17:21.655Z,12.75
2019-05-11T03:19:50.076Z,12.70
2019-05-11T03:22:18.515Z,11.70
2019-05-11T03:24:46.939Z,12.82
2019-05-11T03:27:15.377Z,13.85
2019-05-11T03:29:43.868Z,16.52
2019-05-11T03:32:12.298Z,15.72
2019-05-11T03:34:40.989Z,14.53
2019-05-11T03:37:09.660Z,14.10
2019-05-11T03:39:38.082Z,11.95
2019-05-11T03:42:14.778Z,12.60
2019-05-11T03:44:36.671Z,14.90
2019-05-11T03:47:05.104Z,12.35
2019-05-11T03:49:33.530Z,11.83
2019-05-11T03:52:01.976Z,10.35
2019-05-11T03:54:30.465Z,12.47
2019-05-11T03:56:58.906Z,13.10
2019-05-11T03:59:27.339Z,12.55
2019-05-11T04:01:55.768Z,9.73
2019-05-11T04:04:24.188Z,11.25
2019-05-11T04:06:52.612Z,10.48
2019-05-11T04:09:21.045Z,12.63
2019-05-11T04:11:49.471Z,10.30
2019-05-11T04:14:17.913Z,9.15
2019-05-11T04:16:46.326Z,9.58
2019-05-11T04:19:14.754Z,10.00
2019-05-11T04:21:43.172Z,8.85
2019-05-11T04:24:11.601Z,10.10
2019-05-11T04:26:40.032Z,9.58
2019-05-11T04:29:08.460Z,9.45
2019-05-11T04:31:37.130Z,10.40
2019-05-11T04:34:05.807Z,9.53
2019-05-11T04:36:34.238Z,9.35
2019-05-11T04:39:04.206Z,9.15
2019-05-11T04:41:32.618Z,12.90
2019-05-11T04:44:01.053Z,11.55
2019-05-11T04:46:29.486Z,8.40
2019-05-11T04:48:57.907Z,8.80
2019-05-11T04:51:27.212Z,11.50
2019-05-11T04:53:55.637Z,7.83
2019-05-11T04:56:24.066Z,10.95
2019-05-11T04:58:52.491Z,8.68
2019-05-11T05:01:20.911Z,7.33
2019-05-11T05:03:54.110Z,9.30
2019-05-11T05:06:24.479Z,9.95
2019-05-11T05:08:49.673Z,12.65
2019-05-11T05:11:18.090Z,9.85
2019-05-11T05:13:46.510Z,8.63
2019-05-11T05:16:14.933Z,9.75
2019-05-11T05:18:43.348Z,10.43
2019-05-11T05:21:11.782Z,9.50
2019-05-11T05:23:40.209Z,10.10
2019-05-11T05:26:08.629Z,7.60
2019-05-11T05:28:37.057Z,11.00
2019-05-11T05:31:05.490Z,7.10
2019-05-11T05:33:33.904Z,10.25
2019-05-11T05:36:02.578Z,10.90
2019-05-11T05:38:31.253Z,7.28
2019-05-11T05:40:59.685Z,8.50
2019-05-11T05:43:28.593Z,8.40
2019-05-11T05:45:57.232Z,8.55
2019-05-11T05:48:25.657Z,10.40
2019-05-11T05:50:54.089Z,9.18
2019-05-11T05:53:22.504Z,7.12
2019-05-11T05:55:50.932Z,9.78
2019-05-11T05:58:19.393Z,11.37
2019-05-11T06:00:47.817Z,9.80
2019-05-11T06:03:16.233Z,11.93
2019-05-11T06:05:44.680Z,8.28
2019-05-11T06:08:13.122Z,8.60
2019-05-11T06:10:41.549Z,8.58
2019-05-11T06:13:09.960Z,9.38
2019-05-11T06:15:38.394Z,9.90
2019-05-11T06:18:07.073Z,11.43
2019-05-11T06:20:35.497Z,8.23
2019-05-11T06:23:03.925Z,8.63
2019-05-11T06:25:32.343Z,10.55
2019-05-11T06:28:00.778Z,8.75
2019-05-11T06:30:30.842Z,9.53
2019-05-11T06:32:59.265Z,8.13
2019-05-11T06:35:27.685Z,8.60
2019-05-11T06:37:56.117Z,10.45
2019-05-11T06:40:28.019Z,9.48
2019-05-11T06:42:54.709Z,8.50
2019-05-11T06:45:23.133Z,7.10
2019-05-11T06:47:51.561Z,9.95
2019-05-11T06:50:20.049Z,6.80
2019-05-11T06:52:49.041Z,8.90
2019-05-11T06:55:17.514Z,8.98
2019-05-11T06:57:45.942Z,6.80
2019-05-11T07:00:14.894Z,6.37
2019-05-11T07:02:43.322Z,6.03
2019-05-11T07:05:11.817Z,6.12
2019-05-11T07:07:47.450Z,7.00
2019-05-11T07:10:11.349Z,7.72
2019-05-11T07:12:39.825Z,5.78
2019-05-11T07:15:08.394Z,9.00
2019-05-11T07:17:36.829Z,6.28
2019-05-11T07:20:08.389Z,6.07
2019-05-11T07:22:36.884Z,5.37
2019-05-11T07:25:06.915Z,5.25
2019-05-11T07:27:35.608Z,8.03
2019-05-11T07:30:06.937Z,3.98
2019-05-11T07:32:37.909Z,9.18
2019-05-11T07:35:08.427Z,6.30
2019-05-11T07:37:38.489Z,10.40
2019-05-11T07:40:08.281Z,7.92
2019-05-11T07:42:37.961Z,8.15
2019-05-11T07:45:09.661Z,4.45
2019-05-11T07:47:38.205Z,5.70
2019-05-11T07:50:09.102Z,6.10
2019-05-11T07:52:37.933Z,7.70
2019-05-11T07:55:08.496Z,5.22
2019-05-11T07:57:38.994Z,5.22
2019-05-11T08:00:08.078Z,4.78
2019-05-11T08:02:38.733Z,4.58
2019-05-11T08:05:08.726Z,7.12
2019-05-11T08:07:37.949Z,7.95
2019-05-11T08:10:08.381Z,5.90
2019-05-11T08:12:39.149Z,8.00
2019-05-11T08:15:12.339Z,4.87
2019-05-11T08:17:38.143Z,5.53
2019-05-11T08:20:08.453Z,6.58
2019-05-11T08:22:37.695Z,6.50
2019-05-11T08:25:09.178Z,4.62
2019-05-11T08:27:38.026Z,5.72
2019-05-11T08:30:11.267Z,4.90
2019-05-11T08:32:39.709Z,5.20
2019-05-11T08:35:09.476Z,5.42
2019-05-11T08:37:38.809Z,6.72
2019-05-11T08:40:08.081Z,5.75
2019-05-11T08:42:37.898Z,5.75
2019-05-11T08:45:18.803Z,6.55
2019-05-11T08:47:37.771Z,5.50
2019-05-11T08:50:08.140Z,6.80
2019-05-11T08:52:38.705Z,5.80
2019-05-11T08:55:08.490Z,6.60
2019-05-11T08:57:38.732Z,6.22
2019-05-11T09:00:09.181Z,4.80
2019-05-11T09:02:38.349Z,4.95
2019-05-11T09:05:08.162Z,4.60
2019-05-11T09:07:38.407Z,4.33
2019-05-11T09:10:08.166Z,3.93
2019-05-11T09:12:38.196Z,4.92
2019-05-11T09:15:08.821Z,5.60
2019-05-11T09:17:38.204Z,6.60
2019-05-11T09:20:08.670Z,4.50
2019-05-11T09:22:38.161Z,5.60
2019-05-11T09:25:08.795Z,5.35
2019-05-11T09:27:37.765Z,6.92
2019-05-11T09:30:08.282Z,7.25
2019-05-11T09:32:38.530Z,6.00
2019-05-11T09:35:08.304Z,5.28
2019-05-11T09:37:38.082Z,4.80
2019-05-11T09:40:07.902Z,5.40
2019-05-11T09:42:38.665Z,4.03
2019-05-11T09:45:07.981Z,4.33
2019-05-11T09:47:38.607Z,4.17
2019-05-11T09:50:08.635Z,3.80
2019-05-11T09:52:38.461Z,5.47
2019-05-11T09:55:08.776Z,4.35
2019-05-11T09:57:38.182Z,4.97
2019-05-11T10:00:08.713Z,3.30
2019-05-11T10:02:38.509Z,6.67
2019-05-11T10:05:08.616Z,4.83
2019-05-11T10:07:38.063Z,6.10
2019-05-11T10:10:09.118Z,5.15
2019-05-11T10:12:38.196Z,6.30
2019-05-11T10:15:08.335Z,4.17
2019-05-11T10:17:38.221Z,4.50
2019-05-11T10:20:09.314Z,5.40
2019-05-11T10:22:38.484Z,6.67
2019-05-11T10:25:08.890Z,5.75
2019-05-11T10:27:38.436Z,4.10
2019-05-11T10:30:08.293Z,6.80
2019-05-11T10:32:37.930Z,5.00
2019-05-11T10:35:08.167Z,6.90
2019-05-11T10:37:38.942Z,5.33
2019-05-11T10:40:09.556Z,3.90
2019-05-11T10:42:38.009Z,6.97
2019-05-11T10:45:09.060Z,4.20
2019-05-11T10:47:38.327Z,4.40
2019-05-11T10:50:08.571Z,5.30
2019-05-11T10:52:37.886Z,5.10
2019-05-11T10:55:08.671Z,3.95
2019-05-11T10:57:38.690Z,4.35
2019-05-11T11:00:08.646Z,4.77
2019-05-11T11:02:38.423Z,3.40
2019-05-11T11:05:08.224Z,4.50
2019-05-11T11:07:38.312Z,5.60
2019-05-11T11:10:08.896Z,7.90
2019-05-11T11:12:38.453Z,4.40
2019-05-11T11:15:09.031Z,6.03
2019-05-11T11:17:38.170Z,4.75
2019-05-11T11:20:08.603Z,4.67
2019-05-11T11:22:43.646Z,4.65
2019-05-11T11:25:08.030Z,4.93
2019-05-11T11:27:38.133Z,4.75
2019-05-11T11:30:09.218Z,4.50
2019-05-11T11:32:38.338Z,6.65
2019-05-11T11:35:08.593Z,5.35
2019-05-11T11:37:38.743Z,5.33
2019-05-11T11:40:09.203Z,3.87
2019-05-11T11:42:37.821Z,3.33
2019-05-11T11:45:10.452Z,3.97
2019-05-11T11:47:38.874Z,4.45
2019-05-11T11:50:09.255Z,5.17
2019-05-11T11:52:38.395Z,4.30
2019-05-11T11:55:08.635Z,4.30
2019-05-11T11:57:38.026Z,3.98
2019-05-11T12:00:09.176Z,5.90
2019-05-11T12:02:38.822Z,4.17
2019-05-11T12:05:09.200Z,4.60
2019-05-11T12:07:38.605Z,5.33
2019-05-11T12:10:08.060Z,5.60
2019-05-11T12:12:38.721Z,5.08
2019-05-11T12:15:09.005Z,5.72
2019-05-11T12:17:37.761Z,3.35
2019-05-11T12:20:08.958Z,5.33
2019-05-11T12:22:38.618Z,5.20
2019-05-11T12:25:07.950Z,4.60
2019-05-11T12:27:38.439Z,5.97
2019-05-11T12:30:09.182Z,4.55
2019-05-11T12:32:39.253Z,6.05
2019-05-11T12:35:08.688Z,4.80
2019-05-11T12:37:37.796Z,4.85
2019-05-11T12:40:08.401Z,7.45
2019-05-11T12:42:38.073Z,5.50
2019-05-11T12:45:10.906Z,6.55
2019-05-11T12:47:39.345Z,5.75
2019-05-11T12:50:08.900Z,5.40
2019-05-11T12:52:38.288Z,3.75
2019-05-11T12:55:08.746Z,6.62
2019-05-11T12:57:38.574Z,3.07
2019-05-11T13:00:08.647Z,6.08
2019-05-11T13:02:38.849Z,7.30
2019-05-11T13:05:08.685Z,5.90
2019-05-11T13:07:39.295Z,3.97
2019-05-11T13:10:08.393Z,5.90
2019-05-11T13:12:38.564Z,6.33
2019-05-11T13:15:08.561Z,4.75
2019-05-11T13:17:40.156Z,3.90
2019-05-11T13:20:08.690Z,3.30
2019-05-11T13:22:38.218Z,4.10
2019-05-11T13:25:08.562Z,4.80
2019-05-11T13:27:38.713Z,6.55
2019-05-11T13:30:08.647Z,4.33
2019-05-11T13:32:38.427Z,3.30
2019-05-11T13:35:09.090Z,5.27
2019-05-11T13:37:38.697Z,4.65
2019-05-11T13:40:08.340Z,5.17
2019-05-11T13:42:38.557Z,3.72
2019-05-11T13:45:08.542Z,7.47
2019-05-11T13:47:49.344Z,4.97
2019-05-11T13:50:07.874Z,5.33
2019-05-11T13:52:38.606Z,4.90
2019-05-11T13:55:07.856Z,4.60
2019-05-11T13:57:37.970Z,6.12
2019-05-11T14:00:08.369Z,5.58
2019-05-11T14:02:37.967Z,4.55
2019-05-11T14:05:08.800Z,4.30
2019-05-11T14:07:38.099Z,4.08
2019-05-11T14:10:08.127Z,4.00
2019-05-11T14:12:38.504Z,4.72
2019-05-11T14:15:08.898Z,6.90
2019-05-11T14:17:37.992Z,4.87
2019-05-11T14:20:10.026Z,4.60
2019-05-11T14:22:39.161Z,3.55
2019-05-11T14:25:08.163Z,4.90
2019-05-11T14:27:38.863Z,4.00
2019-05-11T14:30:08.642Z,32.98
2019-05-11T14:32:38.940Z,6.17
2019-05-11T14:35:11.901Z,4.20
2019-05-11T14:37:38.053Z,4.33
2019-05-11T14:40:08.886Z,5.70
2019-05-11T14:42:38.189Z,7.05
2019-05-11T14:45:08.603Z,5.05
2019-05-11T14:47:38.611Z,3.85
2019-05-11T14:50:08.677Z,5.20
2019-05-11T14:52:38.979Z,5.40
2019-05-11T14:55:08.197Z,2.90
2019-05-11T14:57:39.329Z,4.67
2019-05-11T15:00:08.332Z,4.20
2019-05-11T15:02:48.593Z,4.45
2019-05-11T15:05:18.493Z,3.67
2019-05-11T15:07:47.952Z,6.60
2019-05-11T15:10:18.700Z,3.65
2019-05-11T15:12:48.904Z,3.83
2019-05-11T15:15:18.721Z,3.00
2019-05-11T15:17:49.367Z,4.10
2019-05-11T15:20:17.949Z,3.55
2019-05-11T15:22:48.628Z,3.83
2019-05-11T15:25:19.444Z,4.12
2019-05-11T15:27:48.702Z,5.10
2019-05-11T15:30:18.353Z,3.95
2019-05-11T15:32:48.212Z,4.00
2019-05-11T15:35:18.515Z,5.05
2019-05-11T15:37:47.875Z,3.58
2019-05-11T15:40:21.335Z,4.90
2019-05-11T15:42:49.752Z,3.08
2019-05-11T15:45:19.057Z,2.93
2019-05-11T15:47:48.749Z,4.25
2019-05-11T15:50:18.982Z,3.10
2019-05-11T15:52:48.710Z,3.77
2019-05-11T15:55:18.847Z,3.25
2019-05-11T15:57:48.301Z,3.67
2019-05-11T16:00:17.420Z,2.83
2019-05-11T16:02:48.702Z,3.20
2019-05-11T16:05:18.254Z,3.42
2019-05-11T16:07:48.887Z,5.40
2019-05-11T16:10:18.784Z,2.65
2019-05-11T16:12:48.652Z,4.20
2019-05-11T16:15:19.131Z,4.17
2019-05-11T16:17:48.748Z,2.83
2019-05-11T16:20:18.302Z,4.03
2019-05-11T16:22:47.958Z,2.40
2019-05-11T16:25:19.270Z,3.60
2019-05-11T16:27:46.918Z,4.40
2019-05-11T16:30:20.876Z,4.97
2019-05-11T16:32:47.823Z,2.70
2019-05-11T16:35:18.064Z,3.62
2019-05-11T16:37:48.393Z,2.98
2019-05-11T16:40:20.197Z,5.15
2019-05-11T16:42:47.832Z,2.80
2019-05-11T16:45:19.074Z,3.95
2019-05-11T16:47:48.289Z,3.92
2019-05-11T16:50:18.075Z,3.70
2019-05-11T16:52:48.245Z,4.75
2019-05-11T16:55:18.307Z,3.80
2019-05-11T16:57:48.363Z,4.70
2019-05-11T17:00:17.787Z,4.47
2019-05-11T17:02:48.659Z,3.90
2019-05-11T17:05:25.903Z,4.00
2019-05-11T17:07:48.341Z,3.47
2019-05-11T17:10:17.934Z,3.83
2019-05-11T17:12:48.337Z,3.08
2019-05-11T17:15:18.489Z,3.10
2019-05-11T17:17:48.684Z,4.47
2019-05-11T17:20:18.865Z,4.62
2019-05-11T17:22:48.193Z,5.07
2019-05-11T17:25:19.111Z,5.12
2019-05-11T17:27:48.717Z,5.35
2019-05-11T17:30:19.372Z,4.13
2019-05-11T17:32:49.145Z,5.20
2019-05-11T17:35:17.975Z,3.67
2019-05-11T17:37:48.629Z,5.37
2019-05-11T17:40:20.438Z,3.12
2019-05-11T17:42:47.969Z,3.62
2019-05-11T17:45:18.860Z,4.50
2019-05-11T17:47:46.997Z,5.72
2019-05-11T17:50:15.591Z,3.20
2019-05-11T17:52:44.020Z,3.52
2019-05-11T17:55:12.575Z,4.10
2019-05-11T17:57:41.365Z,5.53
2019-05-11T18:00:10.127Z,3.85
2019-05-11T18:02:39.075Z,5.80
2019-05-11T18:05:08.970Z,4.90
2019-05-11T18:07:38.556Z,5.33
2019-05-11T18:10:08.179Z,4.85
2019-05-11T18:12:38.851Z,4.87
2019-05-11T18:15:08.205Z,5.37
2019-05-11T18:17:36.861Z,5.47
2019-05-11T18:20:17.238Z,5.83
2019-05-11T18:22:39.116Z,4.97
2019-05-11T18:25:08.776Z,6.85
2019-05-11T18:27:38.679Z,5.15
2019-05-11T18:30:08.912Z,5.00
2019-05-11T18:32:39.744Z,7.00
2019-05-11T18:35:08.832Z,7.12
2019-05-11T18:37:39.072Z,4.45
2019-05-11T18:40:08.560Z,5.93
2019-05-11T18:42:38.331Z,6.55
2019-05-11T18:45:08.336Z,4.87
2019-05-11T18:47:38.142Z,5.47
2019-05-11T18:50:08.556Z,6.65
2019-05-11T18:52:37.270Z,6.30
2019-05-11T18:55:08.461Z,5.08
2019-05-11T18:57:38.359Z,6.60
2019-05-11T19:00:10.127Z,5.08
2019-05-11T19:02:38.899Z,5.75
2019-05-11T19:05:07.685Z,4.30
2019-05-11T19:07:38.585Z,5.65
2019-05-11T19:10:08.634Z,5.05
2019-05-11T19:12:37.755Z,7.67
2019-05-11T19:15:08.309Z,5.03
2019-05-11T19:17:38.566Z,6.72
2019-05-11T19:20:09.253Z,8.43
2019-05-11T19:22:38.615Z,6.33
2019-05-11T19:25:08.982Z,5.65
2019-05-11T19:27:38.194Z,7.37
2019-05-11T19:30:09.961Z,9.85
2019-05-11T19:32:39.059Z,5.28
2019-05-11T19:35:08.859Z,7.45
2019-05-11T19:37:39.074Z,6.78
2019-05-11T19:40:09.333Z,6.20
2019-05-11T19:42:59.151Z,6.35
2019-05-11T19:45:29.401Z,5.67
2019-05-11T19:47:58.427Z,5.37
2019-05-11T19:50:27.741Z,3.70
2019-05-11T19:52:57.978Z,5.97
2019-05-11T19:55:28.596Z,5.37
2019-05-11T19:57:57.452Z,4.90
2019-05-11T20:00:26.255Z,5.25
2019-05-11T20:02:55.051Z,4.80
2019-05-11T20:05:23.872Z,3.42
2019-05-11T20:07:52.353Z,6.92
2019-05-11T20:10:20.806Z,4.72
2019-05-11T20:12:49.247Z,6.50
2019-05-11T20:15:18.818Z,6.55
2019-05-11T20:17:48.635Z,6.67
2019-05-11T20:20:18.417Z,6.87
2019-05-11T20:22:48.186Z,4.40
2019-05-11T20:25:18.494Z,6.37
2019-05-11T20:27:48.337Z,6.05
2019-05-11T20:30:18.549Z,5.35
2019-05-11T20:32:48.408Z,6.53
2019-05-11T20:35:17.204Z,8.45
2019-05-11T20:37:45.744Z,5.50
2019-05-11T20:40:14.348Z,5.47
2019-05-11T20:42:42.770Z,5.10
2019-05-11T20:45:11.462Z,5.28
2019-05-11T20:47:39.885Z,8.43
2019-05-11T20:50:08.383Z,5.70
2019-05-11T20:52:39.047Z,7.20
2019-05-11T20:55:08.944Z,6.87
2019-05-11T20:57:39.184Z,6.08
2019-05-11T21:00:08.536Z,4.92
2019-05-11T21:02:38.113Z,7.03
2019-05-11T21:05:09.179Z,5.67
2019-05-11T21:07:38.742Z,5.72
2019-05-11T21:10:08.784Z,7.37
2019-05-11T21:12:38.494Z,5.30
2019-05-11T21:15:08.094Z,4.87
2019-05-11T21:17:36.560Z,5.40
2019-05-11T21:20:08.397Z,4.85
2019-05-11T21:22:40.118Z,4.85
2019-05-11T21:25:10.676Z,3.67
2019-05-11T21:27:39.098Z,5.80
2019-05-11T21:30:09.112Z,4.97
2019-05-11T21:32:38.829Z,3.90
2019-05-11T21:35:08.847Z,10.15
2019-05-11T21:37:38.781Z,5.47
2019-05-11T21:40:09.212Z,5.17
2019-05-11T21:42:38.937Z,6.60
2019-05-11T21:45:09.455Z,5.15
2019-05-11T21:47:38.828Z,6.08
2019-05-11T21:50:08.960Z,7.10
2019-05-11T21:52:38.436Z,7.20
2019-05-11T21:55:09.493Z,4.95
2019-05-11T21:57:38.471Z,7.95
2019-05-11T22:00:09.244Z,8.88
2019-05-11T22:02:38.600Z,5.90
2019-05-11T22:05:08.173Z,7.03
2019-05-11T22:07:38.993Z,7.28
2019-05-11T22:10:08.978Z,5.00
2019-05-11T22:12:38.726Z,6.15
2019-05-11T22:15:09.132Z,7.72
2019-05-11T22:17:39.367Z,7.00
2019-05-11T22:20:08.577Z,5.65
2019-05-11T22:22:38.888Z,6.67
2019-05-11T22:25:08.890Z,5.15
2019-05-11T22:27:38.953Z,6.97
2019-05-11T22:30:09.835Z,7.10
2019-05-11T22:32:38.776Z,5.78
2019-05-11T22:35:09.559Z,5.47
2019-05-11T22:37:39.047Z,7.00
2019-05-11T22:40:08.591Z,7.90
2019-05-11T22:42:37.411Z,7.92
2019-05-11T22:45:08.933Z,8.05
2019-05-11T22:47:39.185Z,6.50
2019-05-11T22:50:09.069Z,5.58
2019-05-11T22:52:40.301Z,7.75
2019-05-11T22:55:08.990Z,6.15
2019-05-11T22:57:38.312Z,5.25
2019-05-11T23:00:08.311Z,5.95
2019-05-11T23:02:38.002Z,5.62
2019-05-11T23:05:08.523Z,4.60
2019-05-11T23:07:41.282Z,5.80
2019-05-11T23:10:09.867Z,5.72
2019-05-11T23:12:38.804Z,10.17
2019-05-11T23:15:12.180Z,8.28
2019-05-11T23:17:40.792Z,5.92
2019-05-11T23:20:11.052Z,5.00
2019-05-11T23:22:57.006Z,6.03
2019-05-11T23:25:19.006Z,7.20
2019-05-11T23:27:48.525Z,5.90
2019-05-11T23:30:19.662Z,6.33
2019-05-11T23:32:48.659Z,5.00
2019-05-11T23:35:18.850Z,8.45
2019-05-11T23:37:49.602Z,7.50
2019-05-11T23:40:18.304Z,7.75
2019-05-11T23:42:49.106Z,6.62
2019-05-11T23:45:18.903Z,5.50
2019-05-11T23:47:48.594Z,5.55
2019-05-11T23:50:18.878Z,8.35
2019-05-11T23:52:50.106Z,5.87
2019-05-11T23:55:19.109Z,6.65
2019-05-11T23:57:48.756Z,5.00
